sensor_id;sensor_type;location;lat;lon;timestamp;P1;durP1;ratioP1;P2;durP2;ratioP2
76136;SDS011;68622;53.128;17.966;2024-01-15T00:00:44;20.10;;;7.70;;
76136;SDS011;68622;53.128;17.966;2024-01-15T00:03:30;15.20;;;6.40;;
76136;SDS011;68622;53.128;17.966;2024-01-15T00:05:56;18.80;;;9.20;;
76136;SDS011;68622;53.128;17.966;2024-01-15T00:08:21;19.40;;;8.10;;
76136;SDS011;68622;53.128;17.966;2024-01-15T00:10:47;20.30;;;8.00;;
76136;SDS011;68622;53.128;17.966;2024-01-15T00:13:13;19.00;;;8.00;;
76136;SDS011;68622;53.128;17.966;2024-01-15T00:15:39;19.20;;;8.40;;
76136;SDS011;68622;53.128;17.966;2024-01-15T00:18:05;17.90;;;8.00;;
76136;SDS011;68622;53.128;17.966;2024-01-15T00:20:31;20.30;;;8.60;;
76136;SDS011;68622;53.128;17.966;2024-01-15T00:22:57;18.20;;;8.40;;
76136;SDS011;68622;53.128;17.966;2024-01-15T00:25:23;21.90;;;8.90;;
76136;SDS011;68622;53.128;17.966;2024-01-15T00:27:49;18.30;;;7.80;;
76136;SDS011;68622;53.128;17.966;2024-01-15T00:30:15;17.40;;;8.40;;
76136;SDS011;68622;53.128;17.966;2024-01-15T00:32:41;16.50;;;7.10;;
76136;SDS011;68622;53.128;17.966;2024-01-15T00:35:07;18.80;;;7.80;;
76136;SDS011;68622;53.128;17.966;2024-01-15T00:37:33;16.80;;;8.00;;
76136;SDS011;68622;53.128;17.966;2024-01-15T00:39:59;15.80;;;7.30;;
76136;SDS011;68622;53.128;17.966;2024-01-15T00:42:25;16.80;;;6.90;;
76136;SDS011;68622;53.128;17.966;2024-01-15T00:44:51;17.30;;;7.80;;
76136;SDS011;68622;53.128;17.966;2024-01-15T00:47:17;14.60;;;7.10;;
76136;SDS011;68622;53.128;17.966;2024-01-15T00:49:44;14.50;;;6.80;;
76136;SDS011;68622;53.128;17.966;2024-01-15T00:52:10;16.10;;;6.30;;
76136;SDS011;68622;53.128;17.966;2024-01-15T00:54:36;15.40;;;6.70;;
76136;SDS011;68622;53.128;17.966;2024-01-15T00:57:03;15.20;;;7.30;;
76136;SDS011;68622;53.128;17.966;2024-01-15T00:59:29;14.60;;;6.80;;
76136;SDS011;68622;53.128;17.966;2024-01-15T01:01:55;17.00;;;7.30;;
76136;SDS011;68622;53.128;17.966;2024-01-15T01:04:21;14.60;;;7.00;;
76136;SDS011;68622;53.128;17.966;2024-01-15T01:06:47;16.70;;;7.90;;
76136;SDS011;68622;53.128;17.966;2024-01-15T01:09:14;16.20;;;7.00;;
76136;SDS011;68622;53.128;17.966;2024-01-15T01:11:40;14.80;;;7.20;;
76136;SDS011;68622;53.128;17.966;2024-01-15T01:14:05;16.70;;;7.60;;
76136;SDS011;68622;53.128;17.966;2024-01-15T01:16:32;16.70;;;7.40;;
76136;SDS011;68622;53.128;17.966;2024-01-15T01:19:05;16.70;;;7.70;;
76136;SDS011;68622;53.128;17.966;2024-01-15T01:21:33;12.50;;;5.90;;
76136;SDS011;68622;53.128;17.966;2024-01-15T01:23:59;14.80;;;6.60;;
76136;SDS011;68622;53.128;17.966;2024-01-15T01:26:25;16.90;;;7.60;;
76136;SDS011;68622;53.128;17.966;2024-01-15T01:28:51;16.40;;;7.00;;
76136;SDS011;68622;53.128;17.966;2024-01-15T01:31:17;13.60;;;6.70;;
76136;SDS011;68622;53.128;17.966;2024-01-15T01:33:42;14.80;;;6.70;;
76136;SDS011;68622;53.128;17.966;2024-01-15T01:36:08;13.10;;;6.50;;
76136;SDS011;68622;53.128;17.966;2024-01-15T01:38:35;14.60;;;6.70;;
76136;SDS011;68622;53.128;17.966;2024-01-15T01:41:02;14.50;;;6.60;;
76136;SDS011;68622;53.128;17.966;2024-01-15T01:43:28;13.90;;;6.30;;
76136;SDS011;68622;53.128;17.966;2024-01-15T01:45:55;13.20;;;5.60;;
76136;SDS011;68622;53.128;17.966;2024-01-15T01:48:24;17.30;;;6.50;;
76136;SDS011;68622;53.128;17.966;2024-01-15T01:50:54;14.90;;;6.70;;
76136;SDS011;68622;53.128;17.966;2024-01-15T01:53:24;12.70;;;6.00;;
76136;SDS011;68622;53.128;17.966;2024-01-15T01:55:51;13.40;;;6.50;;
76136;SDS011;68622;53.128;17.966;2024-01-15T01:58:18;13.70;;;6.50;;
76136;SDS011;68622;53.128;17.966;2024-01-15T02:00:48;11.30;;;5.20;;
76136;SDS011;68622;53.128;17.966;2024-01-15T02:03:15;14.80;;;6.20;;
76136;SDS011;68622;53.128;17.966;2024-01-15T02:05:42;11.80;;;5.00;;
76136;SDS011;68622;53.128;17.966;2024-01-15T02:08:10;11.80;;;5.30;;
76136;SDS011;68622;53.128;17.966;2024-01-15T02:10:36;11.90;;;5.40;;
76136;SDS011;68622;53.128;17.966;2024-01-15T02:13:02;11.70;;;5.10;;
76136;SDS011;68622;53.128;17.966;2024-01-15T02:15:28;13.30;;;6.20;;
76136;SDS011;68622;53.128;17.966;2024-01-15T02:18:01;12.30;;;6.30;;
76136;SDS011;68622;53.128;17.966;2024-01-15T02:20:28;12.70;;;5.60;;
76136;SDS011;68622;53.128;17.966;2024-01-15T02:23:07;14.40;;;5.80;;
76136;SDS011;68622;53.128;17.966;2024-01-15T02:25:33;11.20;;;5.00;;
76136;SDS011;68622;53.128;17.966;2024-01-15T02:27:59;13.70;;;6.00;;
76136;SDS011;68622;53.128;17.966;2024-01-15T02:30:25;11.70;;;5.60;;
76136;SDS011;68622;53.128;17.966;2024-01-15T02:32:54;9.90;;;4.40;;
76136;SDS011;68622;53.128;17.966;2024-01-15T02:35:20;12.00;;;5.90;;
76136;SDS011;68622;53.128;17.966;2024-01-15T02:37:46;13.00;;;6.10;;
76136;SDS011;68622;53.128;17.966;2024-01-15T02:40:11;13.00;;;5.30;;
76136;SDS011;68622;53.128;17.966;2024-01-15T02:42:37;10.70;;;4.80;;
76136;SDS011;68622;53.128;17.966;2024-01-15T02:45:03;10.90;;;5.30;;
76136;SDS011;68622;53.128;17.966;2024-01-15T02:47:30;11.40;;;4.70;;
76136;SDS011;68622;53.128;17.966;2024-01-15T02:49:56;12.80;;;5.10;;
76136;SDS011;68622;53.128;17.966;2024-01-15T02:52:21;13.30;;;5.20;;
76136;SDS011;68622;53.128;17.966;2024-01-15T02:54:47;10.70;;;4.60;;
76136;SDS011;68622;53.128;17.966;2024-01-15T02:57:13;11.70;;;4.90;;
76136;SDS011;68622;53.128;17.966;2024-01-15T02:59:39;10.80;;;5.10;;
76136;SDS011;68622;53.128;17.966;2024-01-15T03:02:05;10.50;;;4.90;;
76136;SDS011;68622;53.128;17.966;2024-01-15T03:04:31;11.10;;;4.90;;
76136;SDS011;68622;53.128;17.966;2024-01-15T03:06:57;12.60;;;6.00;;
76136;SDS011;68622;53.128;17.966;2024-01-15T03:09:22;12.80;;;5.50;;
76136;SDS011;68622;53.128;17.966;2024-01-15T03:11:49;12.80;;;5.80;;
76136;SDS011;68622;53.128;17.966;2024-01-15T03:14:14;11.00;;;5.30;;
76136;SDS011;68622;53.128;17.966;2024-01-15T03:16:40;12.90;;;6.20;;
76136;SDS011;68622;53.128;17.966;2024-01-15T03:19:07;13.80;;;6.00;;
76136;SDS011;68622;53.128;17.966;2024-01-15T03:21:33;14.70;;;6.50;;
76136;SDS011;68622;53.128;17.966;2024-01-15T03:23:59;13.70;;;6.20;;
76136;SDS011;68622;53.128;17.966;2024-01-15T03:26:25;14.70;;;6.90;;
76136;SDS011;68622;53.128;17.966;2024-01-15T03:28:51;15.10;;;7.40;;
76136;SDS011;68622;53.128;17.966;2024-01-15T03:31:17;14.50;;;6.70;;
76136;SDS011;68622;53.128;17.966;2024-01-15T03:33:43;15.70;;;7.90;;
76136;SDS011;68622;53.128;17.966;2024-01-15T03:36:09;17.00;;;8.20;;
76136;SDS011;68622;53.128;17.966;2024-01-15T03:38:39;18.50;;;6.90;;
76136;SDS011;68622;53.128;17.966;2024-01-15T03:41:06;15.20;;;7.10;;
76136;SDS011;68622;53.128;17.966;2024-01-15T03:43:32;14.90;;;7.60;;
76136;SDS011;68622;53.128;17.966;2024-01-15T03:45:58;16.60;;;7.00;;
76136;SDS011;68622;53.128;17.966;2024-01-15T03:48:24;15.00;;;7.10;;
76136;SDS011;68622;53.128;17.966;2024-01-15T03:50:50;15.70;;;6.70;;
76136;SDS011;68622;53.128;17.966;2024-01-15T03:53:16;15.70;;;8.00;;
76136;SDS011;68622;53.128;17.966;2024-01-15T03:55:42;15.80;;;6.80;;
76136;SDS011;68622;53.128;17.966;2024-01-15T03:58:08;15.40;;;7.10;;
76136;SDS011;68622;53.128;17.966;2024-01-15T04:00:34;18.70;;;10.20;;
76136;SDS011;68622;53.128;17.966;2024-01-15T04:03:00;19.30;;;8.80;;
76136;SDS011;68622;53.128;17.966;2024-01-15T04:05:26;15.10;;;7.10;;
76136;SDS011;68622;53.128;17.966;2024-01-15T04:07:52;16.40;;;7.20;;
76136;SDS011;68622;53.128;17.966;2024-01-15T04:10:17;15.60;;;7.20;;
76136;SDS011;68622;53.128;17.966;2024-01-15T04:12:43;14.50;;;6.80;;
76136;SDS011;68622;53.128;17.966;2024-01-15T04:15:12;16.90;;;7.30;;
76136;SDS011;68622;53.128;17.966;2024-01-15T04:17:38;16.40;;;7.40;;
76136;SDS011;68622;53.128;17.966;2024-01-15T04:20:04;15.40;;;6.50;;
76136;SDS011;68622;53.128;17.966;2024-01-15T04:22:31;17.00;;;7.20;;
76136;SDS011;68622;53.128;17.966;2024-01-15T04:24:56;15.80;;;6.70;;
76136;SDS011;68622;53.128;17.966;2024-01-15T04:27:22;13.40;;;4.80;;
76136;SDS011;68622;53.128;17.966;2024-01-15T04:29:48;12.90;;;5.30;;
76136;SDS011;68622;53.128;17.966;2024-01-15T04:32:14;9.90;;;3.80;;
76136;SDS011;68622;53.128;17.966;2024-01-15T04:34:40;8.00;;;2.70;;
76136;SDS011;68622;53.128;17.966;2024-01-15T04:37:06;9.60;;;3.10;;
76136;SDS011;68622;53.128;17.966;2024-01-15T04:39:32;7.60;;;2.50;;
76136;SDS011;68622;53.128;17.966;2024-01-15T04:41:58;8.00;;;2.60;;
76136;SDS011;68622;53.128;17.966;2024-01-15T04:44:24;7.60;;;2.50;;
76136;SDS011;68622;53.128;17.966;2024-01-15T04:46:50;9.70;;;2.90;;
76136;SDS011;68622;53.128;17.966;2024-01-15T04:49:15;6.80;;;2.40;;
76136;SDS011;68622;53.128;17.966;2024-01-15T04:51:41;7.60;;;2.70;;
76136;SDS011;68622;53.128;17.966;2024-01-15T04:54:07;9.30;;;3.30;;
76136;SDS011;68622;53.128;17.966;2024-01-15T04:56:33;13.60;;;4.60;;
76136;SDS011;68622;53.128;17.966;2024-01-15T04:58:59;9.30;;;3.30;;
76136;SDS011;68622;53.128;17.966;2024-01-15T05:01:25;10.60;;;3.80;;
76136;SDS011;68622;53.128;17.966;2024-01-15T05:03:51;11.20;;;3.90;;
76136;SDS011;68622;53.128;17.966;2024-01-15T05:06:17;10.40;;;3.20;;
76136;SDS011;68622;53.128;17.966;2024-01-15T05:08:43;10.40;;;3.20;;
76136;SDS011;68622;53.128;17.966;2024-01-15T05:11:08;11.50;;;2.90;;
76136;SDS011;68622;53.128;17.966;2024-01-15T05:13:34;9.50;;;2.70;;
76136;SDS011;68622;53.128;17.966;2024-01-15T05:16:00;8.70;;;2.10;;
76136;SDS011;68622;53.128;17.966;2024-01-15T05:18:26;9.90;;;2.70;;
76136;SDS011;68622;53.128;17.966;2024-01-15T05:20:52;9.40;;;2.50;;
76136;SDS011;68622;53.128;17.966;2024-01-15T05:23:18;10.00;;;2.90;;
76136;SDS011;68622;53.128;17.966;2024-01-15T05:25:44;13.50;;;3.30;;
76136;SDS011;68622;53.128;17.966;2024-01-15T05:28:10;12.00;;;2.50;;
76136;SDS011;68622;53.128;17.966;2024-01-15T05:30:36;12.20;;;2.50;;
76136;SDS011;68622;53.128;17.966;2024-01-15T05:33:02;11.60;;;2.40;;
76136;SDS011;68622;53.128;17.966;2024-01-15T05:35:28;12.20;;;2.70;;
76136;SDS011;68622;53.128;17.966;2024-01-15T05:37:55;11.60;;;1.90;;
76136;SDS011;68622;53.128;17.966;2024-01-15T05:40:21;7.30;;;1.30;;
76136;SDS011;68622;53.128;17.966;2024-01-15T05:42:47;7.70;;;1.60;;
76136;SDS011;68622;53.128;17.966;2024-01-15T05:45:13;10.30;;;1.90;;
76136;SDS011;68622;53.128;17.966;2024-01-15T05:47:39;9.30;;;4.20;;
76136;SDS011;68622;53.128;17.966;2024-01-15T05:50:05;17.00;;;2.70;;
76136;SDS011;68622;53.128;17.966;2024-01-15T05:52:34;14.20;;;4.00;;
76136;SDS011;68622;53.128;17.966;2024-01-15T05:54:59;11.20;;;2.80;;
76136;SDS011;68622;53.128;17.966;2024-01-15T05:57:25;9.70;;;2.00;;
76136;SDS011;68622;53.128;17.966;2024-01-15T05:59:51;9.80;;;1.80;;
76136;SDS011;68622;53.128;17.966;2024-01-15T06:02:17;9.80;;;1.40;;
76136;SDS011;68622;53.128;17.966;2024-01-15T06:04:43;8.30;;;1.90;;
76136;SDS011;68622;53.128;17.966;2024-01-15T06:07:09;8.60;;;1.80;;
76136;SDS011;68622;53.128;17.966;2024-01-15T06:09:35;7.10;;;2.00;;
76136;SDS011;68622;53.128;17.966;2024-01-15T06:12:01;9.40;;;2.30;;
76136;SDS011;68622;53.128;17.966;2024-01-15T06:14:27;7.10;;;2.00;;
76136;SDS011;68622;53.128;17.966;2024-01-15T06:16:53;8.10;;;2.00;;
76136;SDS011;68622;53.128;17.966;2024-01-15T06:19:19;7.20;;;1.90;;
76136;SDS011;68622;53.128;17.966;2024-01-15T06:21:45;8.20;;;2.30;;
76136;SDS011;68622;53.128;17.966;2024-01-15T06:24:11;8.60;;;2.90;;
76136;SDS011;68622;53.128;17.966;2024-01-15T06:26:39;9.10;;;2.30;;
76136;SDS011;68622;53.128;17.966;2024-01-15T06:29:05;9.90;;;3.30;;
76136;SDS011;68622;53.128;17.966;2024-01-15T06:31:30;11.70;;;3.10;;
76136;SDS011;68622;53.128;17.966;2024-01-15T06:33:56;13.90;;;3.40;;
76136;SDS011;68622;53.128;17.966;2024-01-15T06:36:22;8.20;;;3.00;;
76136;SDS011;68622;53.128;17.966;2024-01-15T06:38:48;13.20;;;3.70;;
76136;SDS011;68622;53.128;17.966;2024-01-15T06:41:14;10.10;;;3.80;;
76136;SDS011;68622;53.128;17.966;2024-01-15T06:43:40;11.10;;;2.90;;
76136;SDS011;68622;53.128;17.966;2024-01-15T06:46:07;9.80;;;3.20;;
76136;SDS011;68622;53.128;17.966;2024-01-15T06:48:33;10.40;;;4.00;;
76136;SDS011;68622;53.128;17.966;2024-01-15T06:50:59;11.70;;;3.50;;
76136;SDS011;68622;53.128;17.966;2024-01-15T06:53:25;13.00;;;3.30;;
76136;SDS011;68622;53.128;17.966;2024-01-15T06:55:51;10.90;;;3.40;;
76136;SDS011;68622;53.128;17.966;2024-01-15T06:58:17;11.10;;;3.70;;
76136;SDS011;68622;53.128;17.966;2024-01-15T07:00:43;13.40;;;4.70;;
76136;SDS011;68622;53.128;17.966;2024-01-15T07:03:09;10.50;;;3.00;;
76136;SDS011;68622;53.128;17.966;2024-01-15T07:05:35;12.10;;;3.60;;
76136;SDS011;68622;53.128;17.966;2024-01-15T07:08:03;12.10;;;3.70;;
76136;SDS011;68622;53.128;17.966;2024-01-15T07:10:30;11.70;;;4.70;;
76136;SDS011;68622;53.128;17.966;2024-01-15T07:12:56;11.50;;;3.50;;
76136;SDS011;68622;53.128;17.966;2024-01-15T07:15:22;10.60;;;3.70;;
76136;SDS011;68622;53.128;17.966;2024-01-15T07:17:48;10.10;;;3.60;;
76136;SDS011;68622;53.128;17.966;2024-01-15T07:20:14;12.20;;;3.70;;
76136;SDS011;68622;53.128;17.966;2024-01-15T07:22:40;10.80;;;4.40;;
76136;SDS011;68622;53.128;17.966;2024-01-15T07:25:06;10.60;;;4.60;;
76136;SDS011;68622;53.128;17.966;2024-01-15T07:27:32;14.00;;;4.30;;
76136;SDS011;68622;53.128;17.966;2024-01-15T07:29:59;12.50;;;4.10;;
76136;SDS011;68622;53.128;17.966;2024-01-15T07:32:25;10.20;;;3.50;;
76136;SDS011;68622;53.128;17.966;2024-01-15T07:34:51;11.90;;;4.70;;
76136;SDS011;68622;53.128;17.966;2024-01-15T07:37:17;12.60;;;4.70;;
76136;SDS011;68622;53.128;17.966;2024-01-15T07:39:43;11.80;;;4.30;;
76136;SDS011;68622;53.128;17.966;2024-01-15T07:42:10;16.90;;;4.60;;
76136;SDS011;68622;53.128;17.966;2024-01-15T07:44:36;14.80;;;5.20;;
76136;SDS011;68622;53.128;17.966;2024-01-15T07:47:03;15.20;;;5.60;;
76136;SDS011;68622;53.128;17.966;2024-01-15T07:49:29;13.50;;;4.90;;
76136;SDS011;68622;53.128;17.966;2024-01-15T07:51:55;15.50;;;4.80;;
76136;SDS011;68622;53.128;17.966;2024-01-15T07:54:21;10.60;;;3.60;;
76136;SDS011;68622;53.128;17.966;2024-01-15T07:56:56;10.70;;;4.10;;
76136;SDS011;68622;53.128;17.966;2024-01-15T07:59:23;12.50;;;3.50;;
76136;SDS011;68622;53.128;17.966;2024-01-15T08:01:50;9.60;;;3.20;;
76136;SDS011;68622;53.128;17.966;2024-01-15T08:04:17;10.10;;;3.40;;
76136;SDS011;68622;53.128;17.966;2024-01-15T08:06:43;12.60;;;4.00;;
76136;SDS011;68622;53.128;17.966;2024-01-15T08:09:10;14.10;;;3.60;;
76136;SDS011;68622;53.128;17.966;2024-01-15T08:11:39;11.40;;;3.90;;
76136;SDS011;68622;53.128;17.966;2024-01-15T08:14:07;10.70;;;3.40;;
76136;SDS011;68622;53.128;17.966;2024-01-15T08:16:34;12.70;;;3.30;;
76136;SDS011;68622;53.128;17.966;2024-01-15T08:19:00;13.50;;;3.50;;
76136;SDS011;68622;53.128;17.966;2024-01-15T08:21:26;13.60;;;4.00;;
76136;SDS011;68622;53.128;17.966;2024-01-15T08:23:59;13.10;;;4.30;;
76136;SDS011;68622;53.128;17.966;2024-01-15T08:26:26;14.60;;;4.40;;
76136;SDS011;68622;53.128;17.966;2024-01-15T08:28:52;11.90;;;4.10;;
76136;SDS011;68622;53.128;17.966;2024-01-15T08:31:18;13.40;;;4.90;;
76136;SDS011;68622;53.128;17.966;2024-01-15T08:33:44;15.60;;;4.30;;
76136;SDS011;68622;53.128;17.966;2024-01-15T08:36:10;10.90;;;3.90;;
76136;SDS011;68622;53.128;17.966;2024-01-15T08:38:35;13.00;;;3.70;;
76136;SDS011;68622;53.128;17.966;2024-01-15T08:41:01;10.70;;;3.40;;
76136;SDS011;68622;53.128;17.966;2024-01-15T08:43:28;11.20;;;3.40;;
76136;SDS011;68622;53.128;17.966;2024-01-15T08:45:53;20.00;;;6.50;;
76136;SDS011;68622;53.128;17.966;2024-01-15T08:48:19;45.70;;;19.60;;
76136;SDS011;68622;53.128;17.966;2024-01-15T08:50:45;102.60;;;43.80;;
76136;SDS011;68622;53.128;17.966;2024-01-15T08:53:12;13.70;;;6.70;;
76136;SDS011;68622;53.128;17.966;2024-01-15T08:55:38;14.30;;;4.40;;
76136;SDS011;68622;53.128;17.966;2024-01-15T08:58:04;16.20;;;4.60;;
76136;SDS011;68622;53.128;17.966;2024-01-15T09:00:31;14.80;;;5.50;;
76136;SDS011;68622;53.128;17.966;2024-01-15T09:02:57;16.50;;;7.80;;
76136;SDS011;68622;53.128;17.966;2024-01-15T09:05:23;12.20;;;4.80;;
76136;SDS011;68622;53.128;17.966;2024-01-15T09:07:49;12.50;;;4.60;;
76136;SDS011;68622;53.128;17.966;2024-01-15T09:10:18;12.60;;;6.80;;
76136;SDS011;68622;53.128;17.966;2024-01-15T09:12:44;11.80;;;4.10;;
76136;SDS011;68622;53.128;17.966;2024-01-15T09:15:10;11.00;;;4.90;;
76136;SDS011;68622;53.128;17.966;2024-01-15T09:17:36;15.40;;;6.10;;
76136;SDS011;68622;53.128;17.966;2024-01-15T09:20:02;15.60;;;5.40;;
76136;SDS011;68622;53.128;17.966;2024-01-15T09:22:30;13.30;;;4.40;;
76136;SDS011;68622;53.128;17.966;2024-01-15T09:24:56;12.30;;;5.00;;
76136;SDS011;68622;53.128;17.966;2024-01-15T09:27:22;13.40;;;4.80;;
76136;SDS011;68622;53.128;17.966;2024-01-15T09:29:47;11.60;;;4.50;;
76136;SDS011;68622;53.128;17.966;2024-01-15T09:32:14;13.60;;;4.30;;
76136;SDS011;68622;53.128;17.966;2024-01-15T09:34:41;13.50;;;6.30;;
76136;SDS011;68622;53.128;17.966;2024-01-15T09:37:07;11.40;;;4.60;;
76136;SDS011;68622;53.128;17.966;2024-01-15T09:39:33;14.20;;;6.60;;
76136;SDS011;68622;53.128;17.966;2024-01-15T09:41:59;15.40;;;4.30;;
76136;SDS011;68622;53.128;17.966;2024-01-15T09:44:26;13.80;;;6.30;;
76136;SDS011;68622;53.128;17.966;2024-01-15T09:46:53;11.10;;;3.70;;
76136;SDS011;68622;53.128;17.966;2024-01-15T09:49:20;9.80;;;4.00;;
76136;SDS011;68622;53.128;17.966;2024-01-15T09:51:46;10.10;;;3.40;;
76136;SDS011;68622;53.128;17.966;2024-01-15T09:54:13;13.00;;;6.80;;
76136;SDS011;68622;53.128;17.966;2024-01-15T09:56:46;11.00;;;3.90;;
76136;SDS011;68622;53.128;17.966;2024-01-15T09:59:14;13.20;;;8.20;;
76136;SDS011;68622;53.128;17.966;2024-01-15T10:01:43;17.00;;;9.50;;
76136;SDS011;68622;53.128;17.966;2024-01-15T10:04:10;14.60;;;6.10;;
76136;SDS011;68622;53.128;17.966;2024-01-15T10:06:38;15.80;;;6.90;;
76136;SDS011;68622;53.128;17.966;2024-01-15T10:09:07;12.80;;;4.60;;
76136;SDS011;68622;53.128;17.966;2024-01-15T10:11:33;10.20;;;4.00;;
76136;SDS011;68622;53.128;17.966;2024-01-15T10:13:59;10.80;;;3.70;;
76136;SDS011;68622;53.128;17.966;2024-01-15T10:16:26;8.20;;;2.80;;
76136;SDS011;68622;53.128;17.966;2024-01-15T10:18:52;9.20;;;3.10;;
76136;SDS011;68622;53.128;17.966;2024-01-15T10:21:17;9.50;;;3.40;;
76136;SDS011;68622;53.128;17.966;2024-01-15T10:23:43;9.50;;;3.10;;
76136;SDS011;68622;53.128;17.966;2024-01-15T10:26:10;12.90;;;3.90;;
76136;SDS011;68622;53.128;17.966;2024-01-15T10:28:37;11.70;;;2.70;;
76136;SDS011;68622;53.128;17.966;2024-01-15T10:31:03;10.20;;;2.50;;
76136;SDS011;68622;53.128;17.966;2024-01-15T10:33:30;6.00;;;1.60;;
76136;SDS011;68622;53.128;17.966;2024-01-15T10:35:57;6.10;;;1.40;;
76136;SDS011;68622;53.128;17.966;2024-01-15T10:38:25;11.30;;;2.20;;
76136;SDS011;68622;53.128;17.966;2024-01-15T10:40:52;7.20;;;2.00;;
76136;SDS011;68622;53.128;17.966;2024-01-15T10:43:19;8.80;;;2.00;;
76136;SDS011;68622;53.128;17.966;2024-01-15T10:45:46;7.30;;;2.30;;
76136;SDS011;68622;53.128;17.966;2024-01-15T10:48:13;12.80;;;2.60;;
76136;SDS011;68622;53.128;17.966;2024-01-15T10:50:40;9.50;;;2.30;;
76136;SDS011;68622;53.128;17.966;2024-01-15T10:53:06;9.90;;;2.20;;
76136;SDS011;68622;53.128;17.966;2024-01-15T10:55:35;6.50;;;1.70;;
76136;SDS011;68622;53.128;17.966;2024-01-15T10:58:03;7.10;;;1.80;;
76136;SDS011;68622;53.128;17.966;2024-01-15T11:00:29;9.30;;;2.20;;
76136;SDS011;68622;53.128;17.966;2024-01-15T11:02:56;10.30;;;2.00;;
76136;SDS011;68622;53.128;17.966;2024-01-15T11:05:23;8.70;;;2.00;;
76136;SDS011;68622;53.128;17.966;2024-01-15T11:07:49;6.80;;;2.20;;
76136;SDS011;68622;53.128;17.966;2024-01-15T11:13:19;10.50;;;1.90;;
76136;SDS011;68622;53.128;17.966;2024-01-15T11:16:06;8.30;;;2.20;;
76136;SDS011;68622;53.128;17.966;2024-01-15T11:18:37;9.60;;;2.50;;
76136;SDS011;68622;53.128;17.966;2024-01-15T11:23:44;13.40;;;3.00;;
76136;SDS011;68622;53.128;17.966;2024-01-15T11:29:02;12.20;;;3.60;;
76136;SDS011;68622;53.128;17.966;2024-01-15T11:34:13;13.20;;;4.00;;
76136;SDS011;68622;53.128;17.966;2024-01-15T11:42:08;9.30;;;1.90;;
76136;SDS011;68622;53.128;17.966;2024-01-15T11:44:36;17.80;;;5.40;;
76136;SDS011;68622;53.128;17.966;2024-01-15T11:47:04;13.50;;;3.80;;
76136;SDS011;68622;53.128;17.966;2024-01-15T11:49:45;6.30;;;1.20;;
76136;SDS011;68622;53.128;17.966;2024-01-15T11:52:26;5.40;;;1.00;;
76136;SDS011;68622;53.128;17.966;2024-01-15T11:55:12;5.80;;;1.30;;
76136;SDS011;68622;53.128;17.966;2024-01-15T11:57:45;12.30;;;2.00;;
76136;SDS011;68622;53.128;17.966;2024-01-15T12:00:12;9.90;;;1.60;;
76136;SDS011;68622;53.128;17.966;2024-01-15T12:02:40;11.00;;;2.00;;
76136;SDS011;68622;53.128;17.966;2024-01-15T12:05:10;5.70;;;1.00;;
76136;SDS011;68622;53.128;17.966;2024-01-15T12:07:40;6.00;;;1.40;;
76136;SDS011;68622;53.128;17.966;2024-01-15T12:10:14;8.70;;;1.70;;
76136;SDS011;68622;53.128;17.966;2024-01-15T12:12:54;6.70;;;1.20;;
76136;SDS011;68622;53.128;17.966;2024-01-15T12:15:23;8.80;;;2.00;;
76136;SDS011;68622;53.128;17.966;2024-01-15T12:17:50;7.00;;;1.20;;
76136;SDS011;68622;53.128;17.966;2024-01-15T12:20:17;8.70;;;2.20;;
76136;SDS011;68622;53.128;17.966;2024-01-15T12:22:44;10.10;;;2.30;;
76136;SDS011;68622;53.128;17.966;2024-01-15T12:25:10;16.40;;;3.40;;
76136;SDS011;68622;53.128;17.966;2024-01-15T12:27:36;22.50;;;6.70;;
76136;SDS011;68622;53.128;17.966;2024-01-15T12:30:03;9.30;;;1.70;;
76136;SDS011;68622;53.128;17.966;2024-01-15T12:32:29;8.20;;;2.30;;
76136;SDS011;68622;53.128;17.966;2024-01-15T12:34:55;11.30;;;2.70;;
76136;SDS011;68622;53.128;17.966;2024-01-15T12:37:21;9.30;;;2.30;;
76136;SDS011;68622;53.128;17.966;2024-01-15T12:39:47;6.70;;;1.90;;
76136;SDS011;68622;53.128;17.966;2024-01-15T12:42:14;11.20;;;2.30;;
76136;SDS011;68622;53.128;17.966;2024-01-15T12:44:40;8.10;;;1.60;;
76136;SDS011;68622;53.128;17.966;2024-01-15T12:47:06;8.40;;;2.30;;
76136;SDS011;68622;53.128;17.966;2024-01-15T12:49:32;7.00;;;1.30;;
76136;SDS011;68622;53.128;17.966;2024-01-15T12:51:58;4.50;;;1.00;;
76136;SDS011;68622;53.128;17.966;2024-01-15T12:54:25;6.10;;;1.70;;
76136;SDS011;68622;53.128;17.966;2024-01-15T12:56:51;6.60;;;1.30;;
76136;SDS011;68622;53.128;17.966;2024-01-15T12:59:18;10.60;;;2.30;;
76136;SDS011;68622;53.128;17.966;2024-01-15T13:01:45;7.80;;;0.90;;
76136;SDS011;68622;53.128;17.966;2024-01-15T13:04:20;6.90;;;1.50;;
76136;SDS011;68622;53.128;17.966;2024-01-15T13:06:47;4.30;;;0.80;;
76136;SDS011;68622;53.128;17.966;2024-01-15T13:09:15;8.60;;;1.00;;
76136;SDS011;68622;53.128;17.966;2024-01-15T13:11:41;6.40;;;1.10;;
76136;SDS011;68622;53.128;17.966;2024-01-15T13:14:07;7.90;;;1.00;;
76136;SDS011;68622;53.128;17.966;2024-01-15T13:16:33;5.50;;;1.10;;
76136;SDS011;68622;53.128;17.966;2024-01-15T13:18:58;5.00;;;1.00;;
76136;SDS011;68622;53.128;17.966;2024-01-15T13:21:24;7.50;;;1.00;;
76136;SDS011;68622;53.128;17.966;2024-01-15T13:23:50;5.80;;;1.20;;
76136;SDS011;68622;53.128;17.966;2024-01-15T13:26:16;8.40;;;1.40;;
76136;SDS011;68622;53.128;17.966;2024-01-15T13:28:44;6.50;;;1.20;;
76136;SDS011;68622;53.128;17.966;2024-01-15T13:31:10;8.90;;;2.50;;
76136;SDS011;68622;53.128;17.966;2024-01-15T13:33:36;9.70;;;1.60;;
76136;SDS011;68622;53.128;17.966;2024-01-15T13:36:03;7.70;;;1.10;;
76136;SDS011;68622;53.128;17.966;2024-01-15T13:38:29;5.20;;;0.90;;
76136;SDS011;68622;53.128;17.966;2024-01-15T13:41:02;4.10;;;1.00;;
76136;SDS011;68622;53.128;17.966;2024-01-15T13:43:29;6.20;;;1.20;;
76136;SDS011;68622;53.128;17.966;2024-01-15T13:45:55;7.00;;;1.40;;
76136;SDS011;68622;53.128;17.966;2024-01-15T13:48:21;7.90;;;1.60;;
76136;SDS011;68622;53.128;17.966;2024-01-15T13:50:47;5.50;;;1.30;;
76136;SDS011;68622;53.128;17.966;2024-01-15T13:53:13;7.60;;;1.60;;
76136;SDS011;68622;53.128;17.966;2024-01-15T13:55:40;9.90;;;2.00;;
76136;SDS011;68622;53.128;17.966;2024-01-15T13:58:06;10.50;;;2.60;;
76136;SDS011;68622;53.128;17.966;2024-01-15T14:00:32;8.20;;;1.80;;
76136;SDS011;68622;53.128;17.966;2024-01-15T14:02:59;8.90;;;1.70;;
76136;SDS011;68622;53.128;17.966;2024-01-15T14:05:25;9.20;;;1.70;;
76136;SDS011;68622;53.128;17.966;2024-01-15T14:07:50;9.60;;;1.90;;
76136;SDS011;68622;53.128;17.966;2024-01-15T14:10:16;9.10;;;2.00;;
76136;SDS011;68622;53.128;17.966;2024-01-15T14:12:43;8.10;;;2.00;;
76136;SDS011;68622;53.128;17.966;2024-01-15T14:15:08;8.40;;;2.10;;
76136;SDS011;68622;53.128;17.966;2024-01-15T14:17:38;11.10;;;2.80;;
76136;SDS011;68622;53.128;17.966;2024-01-15T14:20:05;8.50;;;2.80;;
76136;SDS011;68622;53.128;17.966;2024-01-15T14:22:32;11.40;;;3.00;;
76136;SDS011;68622;53.128;17.966;2024-01-15T14:24:58;7.90;;;2.00;;
76136;SDS011;68622;53.128;17.966;2024-01-15T14:27:24;5.00;;;1.00;;
76136;SDS011;68622;53.128;17.966;2024-01-15T14:29:50;7.60;;;1.60;;
76136;SDS011;68622;53.128;17.966;2024-01-15T14:32:16;6.10;;;1.20;;
76136;SDS011;68622;53.128;17.966;2024-01-15T14:34:42;7.10;;;1.80;;
76136;SDS011;68622;53.128;17.966;2024-01-15T14:37:08;6.70;;;1.60;;
76136;SDS011;68622;53.128;17.966;2024-01-15T14:39:34;5.20;;;1.40;;